Time;durP1;ratioP1;P1;durP2;ratioP2;P2;SDS_P1;SDS_P2;PMS_P1;PMS_P2;Temp;Humidity;BMP_temperature;BMP_pressure;BME280_temperature;BME280_humidity;BME280_pressure;Samples;Min_cycle;Max_cycle;Signal;HPM_P1;HPM_P2
2022/01/22 00:00:23;;;;;;;8.30;7.90;;;;;;;-3.50;54.19;100532.66;5010369;28;20048;-63
2022/01/22 00:02:50;;;;;;;9.07;8.57;;;;;;;-3.47;53.90;100527.28;5013134;28;20103;-64
2022/01/22 00:05:17;;;;;;;9.18;8.68;;;;;;;-3.43;53.61;100530.53;5011897;28;20116;-64
2022/01/22 00:07:43;;;;;;;8.55;8.10;;;;;;;-3.37;53.94;100525.84;5011995;28;20026;-63
2022/01/22 00:10:14;;;;;;;10.02;9.35;;;;;;;-3.32;52.78;100525.56;5004591;28;20034;-64
2022/01/22 00:15:10;;;;;;;8.40;8.00;;;;;;;-3.34;53.84;100530.84;5009558;28;20445;-64
2022/01/22 00:17:37;;;;;;;10.60;9.82;;;;;;;-3.30;53.84;100521.16;5011276;28;20064;-63
2022/01/22 00:20:04;;;;;;;8.85;8.35;;;;;;;-3.31;53.79;100526.41;5012816;28;20083;-64
2022/01/22 00:22:32;;;;;;;9.10;8.60;;;;;;;-3.27;53.28;100525.31;5011745;28;20029;-64
2022/01/22 00:25:00;;;;;;;8.70;8.25;;;;;;;-3.30;54.23;100521.16;5005384;28;20156;-65
2022/01/22 00:27:27;;;;;;;10.05;9.43;;;;;;;-3.20;53.95;100518.88;4994054;28;20099;-64
2022/01/22 00:29:52;;;;;;;8.30;7.88;;;;;;;-3.22;54.80;100528.50;5011143;28;20026;-63
2022/01/22 00:32:18;;;;;;;8.77;8.27;;;;;;;-3.22;54.55;100524.16;4993950;28;20432;-64
2022/01/22 00:34:44;;;;;;;8.82;8.32;;;;;;;-3.24;54.24;100519.97;5012801;28;20018;-64
2022/01/22 00:37:10;;;;;;;9.55;8.95;;;;;;;-3.27;54.43;100523.56;5011918;28;20041;-63
2022/01/22 00:39:36;;;;;;;8.05;7.65;;;;;;;-3.24;54.18;100517.38;5010366;28;20101;-64
2022/01/22 00:42:04;;;;;;;8.60;8.20;;;;;;;-3.29;54.06;100498.66;5011624;28;20141;-63
2022/01/22 00:44:29;;;;;;;8.13;7.72;;;;;;;-3.35;54.11;100492.88;5009944;28;20030;-64
2022/01/22 00:46:55;;;;;;;9.13;8.63;;;;;;;-3.29;54.28;100498.66;5010519;28;20072;-64
2022/01/22 00:49:20;;;;;;;9.00;8.50;;;;;;;-3.19;53.74;100513.59;5011553;28;20124;-64
2022/01/22 00:51:46;;;;;;;9.13;8.57;;;;;;;-3.21;53.58;100512.84;5009886;28;20049;-63
2022/01/22 00:54:12;;;;;;;8.57;8.15;;;;;;;-3.19;54.20;100511.00;5010142;28;20115;-63
2022/01/22 00:56:37;;;;;;;8.40;8.00;;;;;;;-3.17;54.16;100509.16;5011237;28;20108;-63
2022/01/22 00:59:03;;;;;;;8.63;8.13;;;;;;;-3.13;53.88;100513.25;5010286;28;20055;-63
2022/01/22 01:01:28;;;;;;;8.57;8.07;;;;;;;-3.08;54.29;100507.81;5011155;28;20369;-64
2022/01/22 01:04:00;;;;;;;8.73;8.23;;;;;;;-3.02;54.92;100509.19;5015694;28;20045;-64
2022/01/22 01:06:26;;;;;;;8.00;7.60;;;;;;;-3.02;54.46;100504.00;5003271;28;20026;-64
2022/01/22 01:08:53;;;;;;;8.20;7.80;;;;;;;-3.01;54.81;100503.94;5011832;28;20456;-63
2022/01/22 01:11:21;;;;;;;9.50;8.90;;;;;;;-3.02;54.29;100491.03;5016160;28;20481;-63
2022/01/22 01:13:50;;;;;;;9.85;9.15;;;;;;;-2.90;54.41;100498.09;5014076;28;20029;-64
2022/01/22 01:32:58;;;;;;;;;;;;;;;-2.69;53.03;100494.25;4925819;28;20051;-64
2022/01/22 01:35:25;;;;;;;8.48;7.97;;;;;;;-2.68;52.31;100489.88;5010718;28;20002;-64
2022/01/22 01:37:53;;;;;;;8.38;7.88;;;;;;;-2.65;52.60;100493.13;5011887;28;20055;-63
2022/01/22 01:40:21;;;;;;;8.70;8.20;;;;;;;-2.66;53.15;100482.84;5018267;28;20029;-63
2022/01/22 01:42:52;;;;;;;9.88;9.23;;;;;;;-2.61;53.15;100483.41;5014497;28;20030;-64
2022/01/22 01:45:18;;;;;;;10.00;9.30;;;;;;;-2.67;52.58;100484.59;5014857;28;20076;-64
2022/01/22 01:47:47;;;;;;;8.48;7.97;;;;;;;-2.64;53.40;100479.25;5010923;28;20434;-64
2022/01/22 01:50:15;;;;;;;9.82;9.18;;;;;;;-2.61;53.36;100481.63;5015960;28;20105;-64
2022/01/22 01:53:04;;;;;;;9.05;8.45;;;;;;;-2.60;52.67;100475.50;5013277;28;20112;-64
2022/01/22 01:55:47;;;;;;;8.40;7.93;;;;;;;-2.49;52.81;100481.84;5010753;28;20025;-64
2022/01/22 01:58:13;;;;;;;8.15;7.72;;;;;;;-2.48;52.81;100479.16;5015088;28;20061;-64
2022/01/22 02:00:39;;;;;;;8.68;8.18;;;;;;;-2.49;52.20;100479.25;5010783;28;20067;-65
2022/01/22 02:03:05;;;;;;;8.48;7.97;;;;;;;-2.42;52.58;100477.91;5015618;28;20397;-64
2022/01/22 02:05:33;;;;;;;8.48;7.97;;;;;;;-2.40;52.08;100483.88;5011007;28;20564;-63
2022/01/22 02:07:59;;;;;;;9.25;8.65;;;;;;;-2.48;52.03;100473.13;5012777;28;20489;-64
2022/01/22 02:10:28;;;;;;;8.15;7.72;;;;;;;-2.38;52.70;100484.63;5013728;28;20026;-64
2022/01/22 02:23:46;;;;;;;8.52;8.02;;;;;;;-2.25;51.87;100485.53;5014309;28;20511;-64
2022/01/22 02:26:14;;;;;;;8.32;7.88;;;;;;;-2.27;51.33;100472.66;5012693;28;20085;-64
2022/01/22 02:28:41;;;;;;;8.52;8.02;;;;;;;-2.28;51.16;100476.19;5012724;28;20100;-63
2022/01/22 02:36:27;;;;;;;8.25;7.85;;;;;;;-2.18;51.78;100465.22;5015657;28;20041;-64
2022/01/22 02:38:59;;;;;;;8.40;7.90;;;;;;;-2.15;52.66;100465.84;5015346;28;20037;-64
2022/01/22 02:41:26;;;;;;;8.10;7.70;;;;;;;-2.29;51.92;100448.50;5016051;28;20477;-64
2022/01/22 02:43:54;;;;;;;8.75;8.25;;;;;;;-2.18;51.82;100463.44;5013899;28;20044;-63
2022/01/22 02:46:23;;;;;;;9.18;8.57;;;;;;;-2.20;52.26;100460.13;5014273;28;20025;-64
2022/01/22 02:48:49;;;;;;;9.15;8.65;;;;;;;-2.19;52.24;100458.34;5014203;28;20029;-64
2022/01/22 02:51:14;;;;;;;8.07;7.68;;;;;;;-2.22;52.29;100457.59;5014627;28;20033;-64
2022/01/22 02:53:40;;;;;;;8.73;8.23;;;;;;;-2.20;52.99;100457.53;5012533;28;20524;-64
2022/01/22 02:56:05;;;;;;;8.43;7.93;;;;;;;-2.25;52.77;100454.38;5013544;28;20022;-63
2022/01/22 02:58:31;;;;;;;8.80;8.30;;;;;;;-2.21;52.90;100461.03;5008225;28;20038;-63
2022/01/22 03:00:57;;;;;;;8.82;8.32;;;;;;;-2.22;52.54;100454.16;5013886;28;20109;-63
2022/01/22 03:03:23;;;;;;;8.20;7.80;;;;;;;-2.28;52.13;100454.53;5012672;28;20026;-64
2022/01/22 03:05:48;;;;;;;8.60;8.10;;;;;;;-2.25;52.14;100459.56;5011222;28;20037;-64
2022/01/22 03:08:15;;;;;;;8.52;8.02;;;;;;;-2.19;51.81;100459.19;5011858;28;20041;-65
2022/01/22 03:10:44;;;;;;;8.80;8.27;;;;;;;-2.20;51.49;100462.72;5012523;28;20036;-63
2022/01/22 03:21:37;;;;;;;8.52;8.02;;;;;;;-2.18;52.24;100463.44;4968420;28;20072;-62
2022/01/22 03:29:41;;;;;;;8.82;8.32;;;;;;;-2.17;52.25;100478.09;5008700;28;20103;-64
2022/01/22 03:32:10;;;;;;;8.20;7.80;;;;;;;-2.25;53.36;100460.38;5011491;28;20109;-64
2022/01/22 03:34:42;;;;;;;7.85;7.45;;;;;;;-2.17;52.79;100469.47;5013681;28;20389;-64
2022/01/22 03:37:08;;;;;;;8.57;8.07;;;;;;;-2.23;53.38;100462.88;5012055;28;20030;-63
2022/01/22 03:39:36;;;;;;;8.55;8.05;;;;;;;-2.25;52.96;100464.75;5015006;28;20403;-64
2022/01/22 03:42:02;;;;;;;8.10;7.70;;;;;;;-2.24;52.87;100458.63;5011774;28;20040;-65
2022/01/22 03:44:30;;;;;;;8.50;8.00;;;;;;;-2.25;53.33;100462.16;5011854;28;20030;-65
2022/01/22 03:46:58;;;;;;;9.35;8.75;;;;;;;-2.23;53.16;100457.69;5012030;28;20021;-64
2022/01/22 03:49:23;;;;;;;8.27;7.88;;;;;;;-2.24;53.25;100453.44;5012391;28;20084;-64
2022/01/22 03:51:49;;;;;;;8.68;8.18;;;;;;;-2.32;53.41;100443.50;5011841;28;20522;-64
2022/01/22 03:54:14;;;;;;;8.35;7.93;;;;;;;-2.17;53.67;100457.31;5009201;28;20037;-63
2022/01/22 03:56:45;;;;;;;8.68;8.18;;;;;;;-2.22;53.69;100452.38;5008173;28;20053;-64
2022/01/22 03:59:11;;;;;;;8.68;8.18;;;;;;;-2.24;53.68;100462.06;5006484;28;20026;-64
2022/01/22 04:04:28;;;;;;;9.23;8.65;;;;;;;-2.24;53.83;100461.22;4998192;28;20037;-64
2022/01/22 04:09:43;;;;;;;8.70;8.20;;;;;;;-2.33;54.16;100456.59;5005710;28;20088;-64
2022/01/22 04:12:11;;;;;;;8.60;8.13;;;;;;;-2.35;53.77;100454.09;5023524;28;20436;-64
2022/01/22 04:14:44;;;;;;;8.50;8.10;;;;;;;-2.38;54.27;100458.63;5010099;28;20026;-63
2022/01/22 04:25:07;;;;;;;9.05;8.55;;;;;;;-2.49;54.03;100464.50;5005891;28;20048;-63
2022/01/22 04:27:33;;;;;;;8.88;8.38;;;;;;;-2.48;54.84;100473.13;4992939;28;20471;-63
2022/01/22 04:30:02;;;;;;;8.25;7.85;;;;;;;-2.57;54.68;100477.94;5008719;28;20034;-64
2022/01/22 04:32:30;;;;;;;8.55;8.13;;;;;;;-2.60;54.40;100467.72;5002946;28;20390;-65
2022/01/22 04:34:56;;;;;;;8.70;8.20;;;;;;;-2.68;55.35;100463.94;5006960;28;20092;-64
2022/01/22 04:37:25;;;;;;;9.25;8.65;;;;;;;-2.57;56.02;100479.69;4995648;28;20027;-64
2022/01/22 04:39:51;;;;;;;8.35;7.95;;;;;;;-2.50;57.48;100480.97;4998305;28;20034;-64
2022/01/22 04:42:18;;;;;;;8.35;7.95;;;;;;;-2.48;57.70;100480.91;5004110;28;20042;-64
2022/01/22 04:45:00;;;;;;;8.65;8.15;;;;;;;-2.46;57.41;100473.84;5009884;28;20032;-64
2022/01/22 04:55:38;;;;;;;8.52;8.02;;;;;;;-2.41;57.32;100482.22;5010186;28;20053;-64
2022/01/22 04:58:04;;;;;;;8.65;8.18;;;;;;;-2.50;58.81;100480.97;5009491;28;20121;-64
2022/01/22 05:00:38;;;;;;;8.77;8.27;;;;;;;-2.58;60.24;100476.25;5007404;28;20029;-64
2022/01/22 05:03:04;;;;;;;8.85;8.35;;;;;;;-2.59;60.85;100482.38;5007689;28;20037;-64
2022/01/22 05:05:30;;;;;;;8.43;8.00;;;;;;;-2.65;61.13;100476.72;5007720;28;20025;-65
2022/01/22 05:07:56;;;;;;;9.02;8.52;;;;;;;-2.69;62.55;100473.47;5002150;28;20022;-64
2022/01/22 05:10:22;;;;;;;8.40;8.00;;;;;;;-2.68;62.29;100471.72;5012143;28;20440;-64
2022/01/22 05:12:48;;;;;;;9.05;8.55;;;;;;;-2.76;62.89;100472.16;5003936;28;20033;-63
2022/01/22 05:15:16;;;;;;;9.02;8.52;;;;;;;-2.79;62.89;100475.78;5008565;28;20030;-64
2022/01/22 05:17:43;;;;;;;9.18;8.63;;;;;;;-2.88;62.88;100467.69;5010544;28;20028;-64
2022/01/22 05:20:27;;;;;;;10.70;9.95;;;;;;;-2.93;63.10;100462.78;5003409;28;20030;-65
2022/01/22 05:23:07;;;;;;;8.95;8.45;;;;;;;-2.96;63.27;100475.09;5005131;28;20018;-64
2022/01/22 05:25:38;;;;;;;10.15;9.45;;;;;;;-2.98;64.04;100471.75;5005685;28;20382;-64
2022/01/22 05:38:30;;;;;;;8.88;8.38;;;;;;;-2.95;60.62;100456.00;5009657;28;20040;-63
2022/01/22 05:40:55;;;;;;;8.02;7.63;;;;;;;-2.91;58.96;100467.88;5001511;28;20039;-64
2022/01/22 05:43:21;;;;;;;9.13;8.60;;;;;;;-2.86;59.00;100476.25;5007089;28;20045;-66
2022/01/22 05:45:46;;;;;;;10.15;9.43;;;;;;;-2.77;59.34;100480.88;4995942;28;20025;-64
2022/01/22 05:48:12;;;;;;;8.60;8.10;;;;;;;-2.76;57.88;100484.31;5010783;28;20045;-64
2022/01/22 05:50:53;;;;;;;8.20;7.80;;;;;;;-2.71;57.78;100480.53;5010623;28;20080;-64
2022/01/22 06:01:22;;;;;;;8.77;8.27;;;;;;;-2.52;56.50;100482.84;5000123;28;20024;-64
2022/01/22 06:03:48;;;;;;;8.75;8.25;;;;;;;-2.39;56.35;100488.16;5011487;28;20083;-64
2022/01/22 06:06:14;;;;;;;9.48;8.88;;;;;;;-2.38;55.79;100482.84;5027753;28;20029;-64
2022/01/22 06:08:51;;;;;;;8.40;7.90;;;;;;;-2.37;56.25;100489.72;5013728;28;20066;-64
2022/01/22 06:11:23;;;;;;;8.50;8.00;;;;;;;-2.31;56.05;100483.31;5012483;28;20034;-64
2022/01/22 06:13:49;;;;;;;9.13;8.52;;;;;;;-2.33;55.80;100473.03;5006666;28;20045;-65
2022/01/22 06:16:18;;;;;;;9.10;8.50;;;;;;;-2.21;55.60;100487.00;5005943;28;20057;-63
2022/01/22 06:18:44;;;;;;;8.75;8.25;;;;;;;-2.16;55.52;100486.72;5013998;28;20026;-64
2022/01/22 06:21:10;;;;;;;8.00;7.60;;;;;;;-1.99;55.15;100489.94;5015082;28;20117;-64
2022/01/22 06:23:37;;;;;;;9.40;8.80;;;;;;;-1.87;54.78;100490.13;5004402;28;20513;-66
2022/01/22 06:26:05;;;;;;;9.70;9.02;;;;;;;-1.81;54.42;100500.97;5008087;28;20064;-65
2022/01/22 06:28:31;;;;;;;8.65;8.13;;;;;;;-1.63;53.72;100511.13;5008046;28;20038;-66
2022/01/22 06:30:58;;;;;;;8.55;8.05;;;;;;;-1.53;53.42;100507.88;4992276;28;20087;-66
2022/01/22 06:33:24;;;;;;;8.63;8.13;;;;;;;-1.55;53.36;100509.72;5003023;28;20081;-64
2022/01/22 06:35:50;;;;;;;8.68;8.15;;;;;;;-1.51;53.81;100519.00;5007043;28;20033;-63
2022/01/22 06:38:17;;;;;;;8.32;7.82;;;;;;;-1.52;53.52;100519.94;5005019;28;20397;-63
2022/01/22 06:43:08;;;;;;;8.43;7.93;;;;;;;-1.63;54.05;100506.78;5008076;28;20026;-64
2022/01/22 06:45:34;;;;;;;7.88;7.47;;;;;;;-1.26;52.76;100522.63;5013231;28;20022;-64
2022/01/22 06:47:59;;;;;;;9.68;9.00;;;;;;;-0.67;51.41;100526.50;5003657;28;20160;-64
2022/01/22 06:50:25;;;;;;;9.02;8.43;;;;;;;-1.01;51.54;100525.31;5002288;28;20073;-63
2022/01/22 06:52:58;;;;;;;8.52;8.02;;;;;;;-1.38;52.60;100524.28;5008713;28;20042;-65
2022/01/22 06:56:01;;;;;;;8.82;8.32;;;;;;;-1.48;52.96;100520.56;5014530;28;20032;-65
2022/01/22 06:58:18;;;;;;;9.55;8.95;;;;;;;-1.45;52.38;100523.81;5009082;28;20199;-64
2022/01/22 07:00:44;;;;;;;9.25;8.65;;;;;;;-1.50;52.40;100523.28;5013203;28;20109;-64
2022/01/22 07:03:09;;;;;;;8.70;8.20;;;;;;;-1.31;52.14;100522.94;5014074;28;20021;-65
2022/01/22 07:05:35;;;;;;;8.57;8.07;;;;;;;-1.34;51.79;100517.91;5011952;28;20082;-64
2022/01/22 07:08:00;;;;;;;8.65;8.15;;;;;;;-1.43;51.24;100515.91;5013374;28;20026;-64
2022/01/22 07:10:26;;;;;;;10.60;9.80;;;;;;;-1.36;51.72;100516.34;4999153;28;20409;-63
2022/01/22 07:12:51;;;;;;;8.38;7.88;;;;;;;-1.18;51.08;100510.78;5012156;28;20618;-64
2022/01/22 07:15:17;;;;;;;8.38;7.88;;;;;;;-1.20;51.25;100510.06;5010247;28;20026;-64
2022/01/22 07:17:44;;;;;;;8.88;8.38;;;;;;;-1.08;51.18;100505.00;5013745;28;20493;-64
2022/01/22 07:20:14;;;;;;;9.48;8.88;;;;;;;-0.94;51.11;100513.56;5012906;28;20072;-63
2022/01/22 07:22:50;;;;;;;8.55;8.05;;;;;;;-1.18;52.25;100523.78;5011564;28;20025;-63
2022/01/22 07:25:16;;;;;;;8.73;8.23;;;;;;;-0.96;52.00;100515.41;5008358;28;20022;-65
2022/01/22 07:27:42;;;;;;;8.40;7.90;;;;;;;-0.87;52.16;100530.44;5005931;28;20045;-63
2022/01/22 07:30:08;;;;;;;8.40;7.90;;;;;;;-0.96;52.05;100520.63;5011667;28;20492;-64
2022/01/22 07:32:37;;;;;;;9.38;8.77;;;;;;;-0.73;51.67;100526.09;5010248;28;20029;-64
2022/01/22 07:35:04;;;;;;;7.93;7.53;;;;;;;-0.70;50.81;100531.09;5026946;28;20064;-65
2022/01/22 07:37:29;;;;;;;8.65;8.15;;;;;;;-0.77;50.45;100520.25;5013970;28;20489;-64
2022/01/22 07:39:55;;;;;;;8.00;7.60;;;;;;;-0.58;50.68;100536.31;5012208;28;20026;-64
2022/01/22 07:42:20;;;;;;;8.25;7.75;;;;;;;-0.75;50.38;100535.75;5010725;28;20080;-63
2022/01/22 07:44:46;;;;;;;8.52;8.02;;;;;;;-0.71;50.51;100535.47;5028604;28;20455;-64
2022/01/22 07:47:11;;;;;;;7.70;7.30;;;;;;;-0.46;50.28;100539.84;5008302;28;20409;-64
2022/01/22 07:49:37;;;;;;;8.02;7.63;;;;;;;-0.48;49.58;100539.13;4993246;28;20061;-65
2022/01/22 07:52:03;;;;;;;8.80;8.30;;;;;;;-0.44;49.86;100540.59;5001889;28;20044;-65
2022/01/22 07:54:29;;;;;;;8.65;8.15;;;;;;;-0.37;49.47;100530.56;5011167;28;20018;-65
2022/01/22 07:56:54;;;;;;;8.77;8.27;;;;;;;-0.42;49.42;100525.69;5007227;28;20129;-65
2022/01/22 07:59:19;;;;;;;9.25;8.65;;;;;;;-0.50;49.26;100546.22;5013649;28;20429;-63
2022/01/22 08:01:45;;;;;;;8.63;8.13;;;;;;;-0.10;49.22;100539.13;5012811;28;20048;-64
2022/01/22 08:04:10;;;;;;;9.35;8.75;;;;;;;-0.14;48.89;100540.28;5011764;28;20029;-64
2022/01/22 08:06:38;;;;;;;9.45;8.85;;;;;;;-0.05;49.07;100533.59;5011219;28;20018;-64
2022/01/22 08:09:05;;;;;;;9.40;8.80;;;;;;;0.05;48.24;100533.78;5002199;28;20120;-64
2022/01/22 08:11:30;;;;;;;8.60;8.10;;;;;;;0.25;48.08;100515.78;5010832;28;20121;-65
2022/01/22 08:13:56;;;;;;;11.20;10.32;;;;;;;0.37;47.96;100536.72;5003613;28;20116;-65
2022/01/22 08:16:24;;;;;;;9.00;8.43;;;;;;;0.77;47.86;100530.31;5012335;28;20041;-65
2022/01/22 08:18:49;;;;;;;9.00;8.40;;;;;;;0.57;47.38;100541.34;5010280;28;20037;-65
2022/01/22 08:21:14;;;;;;;8.35;7.85;;;;;;;0.99;47.22;100540.00;5011629;28;20392;-65
2022/01/22 08:23:40;;;;;;;8.10;7.68;;;;;;;2.04;44.58;100548.63;5013098;28;20553;-64
2022/01/22 08:26:09;;;;;;;7.93;7.53;;;;;;;3.58;42.52;100543.94;5009750;28;20517;-65
2022/01/22 08:28:53;;;;;;;8.18;7.68;;;;;;;4.09;39.88;100546.53;4993180;28;20044;-64
2022/01/22 08:36:42;;;;;;;7.50;7.10;;;;;;;10.61;29.49;100564.94;5009265;28;20036;-64
2022/01/22 08:39:10;;;;;;;7.20;6.90;;;;;;;10.97;28.89;100556.44;5006473;28;20034;-64
2022/01/22 08:41:36;;;;;;;6.68;6.38;;;;;;;11.30;27.85;100560.50;5011021;28;20029;-64
2022/01/22 08:44:07;;;;;;;7.05;6.75;;;;;;;11.39;27.54;100553.31;5012611;28;20041;-63
2022/01/22 08:46:34;;;;;;;6.85;6.55;;;;;;;8.95;30.03;100535.63;5010154;28;20464;-64
2022/01/22 08:49:00;;;;;;;7.78;7.38;;;;;;;9.69;29.36;100540.75;5010792;28;20038;-64
2022/01/22 08:51:26;;;;;;;8.93;8.43;;;;;;;8.48;31.37;100544.94;5014772;28;20522;-65
2022/01/22 08:53:52;;;;;;;7.75;7.35;;;;;;;6.17;35.67;100554.00;5011198;28;20096;-64
2022/01/22 08:56:21;;;;;;;7.80;7.40;;;;;;;4.47;38.64;100536.28;5018029;28;20037;-65
2022/01/22 08:58:47;;;;;;;9.88;9.27;;;;;;;4.15;41.13;100539.94;5012204;28;20087;-65
2022/01/22 09:01:15;;;;;;;9.00;8.50;;;;;;;3.77;42.90;100546.69;5012860;28;20026;-64
2022/01/22 09:03:41;;;;;;;9.05;8.55;;;;;;;2.62;44.69;100541.41;5011537;28;20032;-64
2022/01/22 09:06:07;;;;;;;8.65;8.25;;;;;;;2.82;45.28;100543.25;4993614;28;20034;-63
2022/01/22 09:08:33;;;;;;;9.30;8.80;;;;;;;2.42;46.27;100537.75;5010451;28;20028;-64
2022/01/22 09:10:58;;;;;;;10.32;9.70;;;;;;;2.26;46.91;100542.53;5008586;28;20030;-64
2022/01/22 09:13:25;;;;;;;8.95;8.45;;;;;;;2.00;47.39;100545.44;4993777;28;20842;-64
2022/01/22 09:15:53;;;;;;;9.27;8.68;;;;;;;1.84;48.07;100529.28;5011428;28;20029;-64
2022/01/22 09:18:19;;;;;;;9.30;8.80;;;;;;;1.57;48.74;100532.22;5009932;28;20037;-64
2022/01/22 09:21:01;;;;;;;8.95;8.45;;;;;;;1.54;49.33;100527.19;5011122;28;20369;-64
2022/01/22 09:23:29;;;;;;;9.80;9.20;;;;;;;1.44;49.76;100527.06;5011084;28;20416;-65
2022/01/22 09:25:55;;;;;;;9.02;8.52;;;;;;;1.25;50.14;100532.88;5008965;28;20129;-64
2022/01/22 09:28:21;;;;;;;8.25;7.85;;;;;;;1.04;50.09;100534.47;5011098;28;20014;-65
2022/01/22 09:30:47;;;;;;;8.35;7.95;;;;;;;1.23;49.60;100526.06;5015420;28;20088;-64
2022/01/22 09:33:13;;;;;;;8.23;7.82;;;;;;;1.25;49.30;100530.25;5014109;28;20030;-64
2022/01/22 09:35:39;;;;;;;9.10;8.60;;;;;;;1.23;48.75;100515.63;5014549;28;20084;-65
2022/01/22 09:38:05;;;;;;;8.93;8.43;;;;;;;1.16;49.33;100527.47;5014986;28;20100;-63
2022/01/22 09:40:30;;;;;;;8.32;7.93;;;;;;;1.07;48.32;100518.53;5013321;28;20132;-62
2022/01/22 09:42:59;;;;;;;8.90;8.40;;;;;;;1.17;47.77;100522.13;4996681;28;20031;-64
2022/01/22 09:45:25;;;;;;;8.40;7.90;;;;;;;1.56;46.26;100520.09;5012586;28;20030;-64
2022/01/22 09:47:51;;;;;;;8.77;8.27;;;;;;;1.77;46.26;100520.22;5014743;28;20022;-64
2022/01/22 09:50:18;;;;;;;8.45;7.95;;;;;;;1.87;46.18;100526.41;5014965;28;20113;-65
2022/01/22 09:52:45;;;;;;;8.80;8.27;;;;;;;1.88;45.94;100500.13;5013180;28;20511;-64
2022/01/22 09:55:11;;;;;;;9.27;8.73;;;;;;;2.07;45.67;100522.25;5011741;28;20041;-65
2022/01/22 09:57:39;;;;;;;8.48;7.97;;;;;;;1.81;45.69;100524.25;5009629;28;20070;-64
2022/01/22 10:00:10;;;;;;;9.40;8.80;;;;;;;1.75;46.32;100524.72;5023741;28;20108;-64
2022/01/22 10:02:51;;;;;;;8.63;8.13;;;;;;;1.46;46.24;100521.72;5013912;28;20084;-64
2022/01/22 10:05:29;;;;;;;9.93;9.23;;;;;;;1.02;46.74;100525.88;5013260;28;20045;-64
2022/01/22 10:08:15;;;;;;;8.90;8.38;;;;;;;0.93;47.13;100522.16;5010175;28;20380;-64
2022/01/22 10:10:40;;;;;;;8.32;7.82;;;;;;;0.90;47.04;100527.63;5012378;28;20103;-64
2022/01/22 10:13:06;;;;;;;8.75;8.25;;;;;;;0.73;47.25;100539.28;5013872;28;20018;-64
2022/01/22 10:15:35;;;;;;;7.82;7.43;;;;;;;0.50;47.87;100522.69;5014513;28;20858;-65
2022/01/22 10:18:00;;;;;;;8.68;8.18;;;;;;;0.33;47.98;100535.28;5014447;28;20053;-65
2022/01/22 10:20:30;;;;;;;8.25;7.82;;;;;;;0.67;47.79;100534.53;5014343;28;20076;-64
2022/01/22 10:23:02;;;;;;;8.45;7.95;;;;;;;0.75;48.63;100533.97;5008926;28;20054;-65
2022/01/22 10:25:37;;;;;;;9.32;8.73;;;;;;;0.76;47.54;100533.84;5012489;28;20105;-65
2022/01/22 10:28:20;;;;;;;;;;;;;;;1.26;46.96;100531.91;5011897;28;20375;-63
2022/01/22 10:30:51;;;;;;;7.78;7.38;;;;;;;1.34;47.11;100531.34;4997563;28;19967;-64
2022/01/22 10:33:35;;;;;;;8.80;8.27;;;;;;;1.11;45.77;100527.84;5010251;28;20065;-64
2022/01/22 10:36:20;;;;;;;8.45;7.95;;;;;;;1.74;45.36;100534.34;5013049;28;20493;-65
2022/01/22 10:38:49;;;;;;;7.50;7.10;;;;;;;1.49;45.11;100518.88;5012346;28;20128;-64
2022/01/22 10:41:20;;;;;;;8.57;8.07;;;;;;;1.08;44.67;100520.22;5011474;28;20413;-65
2022/01/22 10:43:54;;;;;;;8.90;8.35;;;;;;;1.27;44.89;100525.72;5009100;28;20132;-64
2022/01/22 10:49:13;;;;;;;7.78;7.38;;;;;;;1.29;45.30;100518.59;5012038;28;20127;-63
2022/01/22 10:51:50;;;;;;;7.90;7.50;;;;;;;1.19;46.00;100522.88;5015133;28;20032;-65
2022/01/22 10:54:20;;;;;;;9.40;8.80;;;;;;;1.06;45.58;100530.78;5006975;28;20041;-64
2022/01/22 10:56:47;;;;;;;8.07;7.68;;;;;;;0.87;45.47;100522.63;5005684;28;20033;-66
2022/01/22 10:59:16;;;;;;;8.23;7.82;;;;;;;1.28;44.90;100522.16;5013169;28;20116;-64
2022/01/22 11:02:03;;;;;;;7.32;7.00;;;;;;;1.43;44.79;100508.91;5013027;28;20062;-65
2022/01/22 11:04:41;;;;;;;7.85;7.45;;;;;;;1.21;44.84;100499.22;5013125;28;20113;-64
2022/01/22 11:07:14;;;;;;;8.60;8.10;;;;;;;0.95;45.02;100520.28;5010796;28;20636;-64
2022/01/22 11:09:40;;;;;;;9.25;8.65;;;;;;;0.76;46.44;100512.97;5012454;28;20471;-65
2022/01/22 11:12:06;;;;;;;8.50;8.00;;;;;;;0.82;46.92;100517.75;4999632;28;20031;-64
2022/01/22 11:14:34;;;;;;;10.50;9.73;;;;;;;0.98;46.45;100500.94;5012483;28;20026;-65
2022/01/22 11:17:00;;;;;;;9.02;8.43;;;;;;;1.33;45.34;100511.38;5012267;28;20057;-65
2022/01/22 11:19:32;;;;;;;8.52;8.02;;;;;;;1.10;44.04;100495.66;5012440;28;20044;-64
2022/01/22 11:22:06;;;;;;;9.77;9.07;;;;;;;1.19;43.28;100498.53;5006627;28;20544;-65
2022/01/22 11:24:41;;;;;;;8.25;7.78;;;;;;;1.17;43.98;100493.38;5008162;28;20571;-64
2022/01/22 11:27:12;;;;;;;9.18;8.57;;;;;;;1.41;43.57;100489.88;5012552;28;20141;-64
2022/01/22 11:29:49;;;;;;;8.48;7.97;;;;;;;1.58;43.12;100492.88;5012026;28;20104;-64
2022/01/22 11:32:19;;;;;;;8.32;7.85;;;;;;;1.75;42.43;100477.66;5007947;28;20026;-64
2022/01/22 11:34:47;;;;;;;9.20;8.60;;;;;;;1.96;42.92;100490.84;5013669;28;20022;-64
2022/01/22 11:37:27;;;;;;;8.65;8.15;;;;;;;2.13;42.20;100482.47;5011226;28;20057;-65
2022/01/22 11:40:26;;;;;;;8.98;8.38;;;;;;;1.96;42.97;100483.00;4995262;28;20158;-65
2022/01/22 11:43:06;;;;;;;8.05;7.65;;;;;;;1.60;43.05;100483.13;4982396;28;20129;-64
2022/01/22 11:45:35;;;;;;;9.40;8.80;;;;;;;1.58;43.59;100478.97;5012661;28;20073;-64
2022/01/22 11:48:20;;;;;;;9.02;8.48;;;;;;;1.51;43.47;100477.78;5009778;28;20140;-64
2022/01/22 11:50:50;;;;;;;8.57;8.07;;;;;;;1.54;44.49;100478.38;5006596;28;20033;-65
2022/01/22 11:53:32;;;;;;;7.90;7.50;;;;;;;1.48;43.81;100478.03;5011637;28;20030;-64
2022/01/22 11:56:10;;;;;;;8.43;7.93;;;;;;;1.42;45.13;100479.31;5012640;28;20021;-65
2022/01/22 11:58:57;;;;;;;7.95;7.55;;;;;;;1.24;45.06;100472.84;5011865;28;20084;-64
2022/01/22 12:01:40;;;;;;;7.85;7.45;;;;;;;1.42;45.55;100476.69;5010333;28;20034;-64
2022/01/22 12:04:09;;;;;;;7.73;7.33;;;;;;;1.31;45.53;100479.28;5011953;28;20026;-64
2022/01/22 12:06:35;;;;;;;8.95;8.43;;;;;;;1.44;45.83;100487.03;5007398;28;20085;-66
2022/01/22 12:09:15;;;;;;;9.07;8.48;;;;;;;1.44;45.76;100479.19;4996150;28;20444;-63
2022/01/22 12:14:47;;;;;;;8.40;7.90;;;;;;;1.47;44.91;100474.56;5009944;28;20088;-65
2022/01/22 12:17:18;;;;;;;7.93;7.53;;;;;;;1.35;45.15;100478.94;5011674;28;20042;-64
2022/01/22 12:22:32;;;;;;;8.60;8.10;;;;;;;1.50;44.84;100486.56;5009608;28;20394;-65
2022/01/22 12:25:02;;;;;;;9.15;8.55;;;;;;;1.35;44.80;100480.72;5028137;28;20030;-64
2022/01/22 12:27:47;;;;;;;8.20;7.80;;;;;;;1.45;44.94;100481.69;5011746;28;20066;-64
2022/01/22 12:30:14;;;;;;;7.93;7.53;;;;;;;1.67;44.32;100486.09;5010977;28;20037;-64
2022/01/22 12:32:50;;;;;;;7.95;7.55;;;;;;;1.79;44.49;100487.75;5011603;28;20061;-64
2022/01/22 12:35:32;;;;;;;8.52;8.02;;;;;;;1.42;45.34;100478.47;5010817;28;20030;-64
2022/01/22 12:38:46;;;;;;;8.30;7.82;;;;;;;1.77;44.38;100492.28;5003693;28;20080;-64
2022/01/22 12:44:10;;;;;;;8.27;7.78;;;;;;;2.31;42.84;100482.81;5010432;28;20091;-64
2022/01/22 12:46:37;;;;;;;9.70;9.00;;;;;;;2.38;42.55;100482.22;5001539;28;20156;-64
2022/01/22 12:49:05;;;;;;;8.52;8.02;;;;;;;2.63;41.66;100480.22;5010344;28;20546;-64
2022/01/22 12:51:31;;;;;;;7.70;7.30;;;;;;;2.52;42.17;100482.88;5004868;28;20108;-65
2022/01/22 12:53:58;;;;;;;7.72;7.32;;;;;;;2.53;42.10;100481.94;5010723;28;20029;-64
2022/01/22 12:56:49;;;;;;;7.60;7.20;;;;;;;2.13;42.29;100472.88;5009215;28;20080;-64
2022/01/22 12:59:10;;;;;;;8.07;7.57;;;;;;;2.18;41.72;100477.72;4998336;28;20507;-65
2022/01/22 13:01:40;;;;;;;8.05;7.63;;;;;;;2.39;41.31;100478.63;5003405;28;20113;-64
2022/01/22 13:04:08;;;;;;;8.65;8.15;;;;;;;2.45;41.67;100485.16;5006245;28;20045;-65
2022/01/22 13:06:53;;;;;;;7.97;7.57;;;;;;;2.24;41.11;100484.25;5014769;28;20048;-64
2022/01/22 13:09:19;;;;;;;7.60;7.22;;;;;;;2.27;41.15;100491.84;5015676;28;20114;-64
2022/01/22 13:11:49;;;;;;;8.23;7.78;;;;;;;2.30;40.77;100495.09;5005279;28;20510;-64
2022/01/22 13:14:18;;;;;;;7.20;6.90;;;;;;;2.28;40.82;100489.16;5010825;28;20040;-65
2022/01/22 13:16:52;;;;;;;8.23;7.78;;;;;;;2.05;41.12;100495.34;5013684;28;20025;-65
2022/01/22 13:19:19;;;;;;;7.95;7.55;;;;;;;2.06;41.74;100497.03;5010932;28;20034;-65
2022/01/22 13:22:02;;;;;;;7.90;7.50;;;;;;;1.90;41.13;100490.34;5010680;28;20049;-65
2022/01/22 13:24:29;;;;;;;8.85;8.35;;;;;;;1.65;41.42;100496.66;5011375;28;20445;-65
2022/01/22 13:27:08;;;;;;;8.25;7.85;;;;;;;1.51;41.88;100491.66;5015593;28;20049;-63